Kezdőlap
METAR-TAF:

METAR-TAF

Repülőterek :

Malindi, Kenya

földrajzi szélesség: 03-14S, földrajzi hosszúság: 040-06E, magasság: 20 m

Jelenlegi meteorológiai megfigyelések

A jelentés 5 órával és 39 perccel ezelõtt készült, 19:00 UTC
Déli szél 13 kt
Hőmérséklet 25°C
Páratartalom 74%
Légköri nyomás 1016 hPa
Látótávolság 10 km, vagy több
Kevés felhő 2100 lábon, Tornyos gomolyfelhő.

METAR: HKML 201900Z 18013KT 9999 FEW021TCU 25/20 Q1016

Idő: 03:39 (00:39 UTC)


TAF: hiányzik

Meteorológiai megfigyelések és előrejelzések több, mint 4000 repülőtéren (METAR és TAF jelentéseket).

A térképen piros és sárga pontok jelzik az elérhető meteorológiai állomásokat.

Mozgassa az egeret a pont fölött, hogy megjelenjen az állomás neve.

Azután kattintson az időjárási megfigyelések és előrejelzések megtekintéséhez.

A térkép megváltoztatása: kattintson a fekete keresztel jelölt zöld gombra ráközelítéshez, a vonallal jelölt zöld gombra távolításhoz, vagy a zöld nyilakra a szomszédos térképek eléréséhez.


METAR-TAF: